createdAt,value
2023-05-20T00:00:09.731Z,95645.81
2023-05-20T00:02:38.633Z,95649.00
2023-05-20T00:05:08.230Z,95651.62
2023-05-20T00:07:37.066Z,95648.27
2023-05-20T00:10:06.296Z,95641.66
2023-05-20T00:12:35.330Z,95647.66
2023-05-20T00:15:03.983Z,95642.20
2023-05-20T00:17:32.949Z,95651.13
2023-05-20T00:20:01.609Z,95647.14
2023-05-20T00:22:30.194Z,95639.70
2023-05-20T00:24:58.866Z,95649.53
2023-05-20T00:27:30.266Z,95645.69
2023-05-20T00:29:59.073Z,95633.52
2023-05-20T00:32:27.812Z,95629.00
2023-05-20T00:35:00.570Z,95623.67
2023-05-20T00:37:29.970Z,95621.14
2023-05-20T00:40:00.851Z,95626.62
2023-05-20T00:42:30.641Z,95624.34
2023-05-20T00:44:59.421Z,95621.94
2023-05-20T00:47:31.440Z,95619.27
2023-05-20T00:50:01.508Z,95616.70
2023-05-20T00:52:32.651Z,95618.27
2023-05-20T00:55:01.748Z,95614.27
2023-05-20T00:57:30.984Z,95611.16
2023-05-20T00:59:59.874Z,95605.39
2023-05-20T01:02:29.726Z,95599.05
2023-05-20T01:04:59.746Z,95609.20
2023-05-20T01:07:28.653Z,95612.53
2023-05-20T01:09:57.371Z,95609.94
2023-05-20T01:12:29.740Z,95613.60
2023-05-20T01:15:01.804Z,95617.86
2023-05-20T01:17:33.313Z,95614.61
2023-05-20T01:20:02.631Z,95612.02
2023-05-20T01:22:32.329Z,95614.61
2023-05-20T01:25:02.721Z,95612.47
2023-05-20T01:27:31.619Z,95615.54
2023-05-20T01:30:00.911Z,95607.23
2023-05-20T01:32:44.752Z,95606.61
2023-05-20T01:35:16.870Z,95615.62
2023-05-20T01:37:46.577Z,95617.80
2023-05-20T01:40:17.176Z,95615.86
2023-05-20T01:42:50.527Z,95615.72
2023-05-20T01:45:19.485Z,95615.16
2023-05-20T01:47:48.735Z,95618.02
2023-05-20T01:50:17.701Z,95614.99
2023-05-20T01:52:46.396Z,95617.30
2023-05-20T01:55:15.139Z,95604.12
2023-05-20T01:57:44.015Z,95608.67
2023-05-20T02:00:13.449Z,95603.81
2023-05-20T02:02:42.386Z,95606.80
2023-05-20T02:05:11.619Z,95607.69
2023-05-20T02:07:40.260Z,95608.01
2023-05-20T02:10:09.658Z,95605.03
2023-05-20T02:12:38.758Z,95591.31
2023-05-20T02:15:08.309Z,95590.42
2023-05-20T02:17:37.378Z,95597.36
2023-05-20T02:20:07.941Z,95596.92
2023-05-20T02:22:36.979Z,95596.31
2023-05-20T02:25:06.289Z,95595.06
2023-05-20T02:27:35.136Z,95589.58
2023-05-20T02:30:03.847Z,95586.14
2023-05-20T02:32:33.889Z,95590.02
2023-05-20T02:35:02.647Z,95586.53
2023-05-20T02:37:31.491Z,95572.23
2023-05-20T02:40:00.901Z,95594.98
2023-05-20T02:42:29.661Z,95594.33
2023-05-20T02:44:59.024Z,95592.59
2023-05-20T02:47:28.517Z,95588.68
2023-05-20T02:50:00.159Z,95590.22
2023-05-20T02:52:28.786Z,95593.11
2023-05-20T02:54:57.717Z,95600.13
2023-05-20T02:57:28.462Z,95597.19
2023-05-20T02:59:59.059Z,95591.78
2023-05-20T03:02:27.736Z,95593.60
2023-05-20T03:04:56.547Z,95586.58
2023-05-20T03:07:25.395Z,95593.37
2023-05-20T03:09:54.102Z,95602.16
2023-05-20T03:12:22.911Z,95605.64
2023-05-20T03:14:53.451Z,95612.45
2023-05-20T03:17:22.900Z,95610.36
2023-05-20T03:19:51.601Z,95616.45
2023-05-20T03:22:49.850Z,95617.88
2023-05-20T03:25:18.631Z,95621.39
2023-05-20T03:27:47.441Z,95621.59
2023-05-20T03:30:16.085Z,95619.69
2023-05-20T03:32:44.945Z,95616.17
2023-05-20T03:35:14.031Z,95617.17
2023-05-20T03:37:42.921Z,95616.83
2023-05-20T03:40:12.265Z,95624.73
2023-05-20T03:42:41.565Z,95628.75
2023-05-20T03:45:12.282Z,95597.16
2023-05-20T03:47:45.726Z,95623.21
2023-05-20T03:50:17.933Z,95629.55
2023-05-20T03:52:46.553Z,95632.22
2023-05-20T03:55:15.362Z,95634.14
2023-05-20T03:57:45.529Z,95642.63
2023-05-20T04:00:14.690Z,95635.77
2023-05-20T04:02:44.998Z,95643.63
2023-05-20T04:05:14.097Z,95650.84
2023-05-20T04:07:46.713Z,95652.33
2023-05-20T04:10:15.525Z,95653.22
2023-05-20T04:12:44.257Z,95652.04
2023-05-20T04:15:13.601Z,95659.61
2023-05-20T04:17:43.166Z,95647.48
2023-05-20T04:20:12.609Z,95665.08
2023-05-20T04:22:41.487Z,95657.77
2023-05-20T04:25:10.308Z,95656.87
2023-05-20T04:27:39.814Z,95654.13
2023-05-20T04:30:10.076Z,95649.47
2023-05-20T04:32:38.935Z,95650.58
2023-05-20T04:35:12.440Z,95650.47
2023-05-20T04:37:42.649Z,95667.58
2023-05-20T04:40:15.858Z,95658.11
2023-05-20T04:42:45.037Z,95651.48
2023-05-20T04:45:14.167Z,95658.51
2023-05-20T04:47:44.527Z,95653.07
2023-05-20T04:50:18.951Z,95663.73
2023-05-20T04:52:51.903Z,95652.95
2023-05-20T04:55:21.782Z,95657.96
2023-05-20T04:57:50.720Z,95664.55
2023-05-20T05:00:19.537Z,95657.66
2023-05-20T05:02:48.322Z,95655.71
2023-05-20T05:05:17.089Z,95659.91
2023-05-20T05:07:45.814Z,95657.98
2023-05-20T05:10:15.886Z,95657.27
2023-05-20T05:12:45.184Z,95655.59
2023-05-20T05:15:13.886Z,95662.90
2023-05-20T05:17:42.623Z,95659.86
2023-05-20T05:20:11.859Z,95658.77
2023-05-20T05:22:41.776Z,95655.87
2023-05-20T05:25:11.758Z,95651.28
2023-05-20T05:27:41.077Z,95653.59
2023-05-20T05:30:10.449Z,95651.50
2023-05-20T05:32:39.472Z,95652.81
2023-05-20T05:35:08.593Z,95650.88
2023-05-20T05:37:37.262Z,95645.53
2023-05-20T05:40:07.237Z,95645.73
2023-05-20T05:42:36.020Z,95643.24
2023-05-20T05:45:04.880Z,95649.73
2023-05-20T05:47:33.648Z,95649.30
2023-05-20T05:50:02.448Z,95646.48
2023-05-20T05:52:31.242Z,95653.75
2023-05-20T05:55:00.196Z,95655.84
2023-05-20T05:57:28.987Z,95656.34
2023-05-20T05:59:57.688Z,95591.46
2023-05-20T06:02:26.700Z,95650.80
2023-05-20T06:04:57.190Z,95646.32
2023-05-20T06:07:28.723Z,95645.19
2023-05-20T06:09:58.919Z,95635.19
2023-05-20T06:12:27.612Z,95633.94
2023-05-20T06:14:56.430Z,95639.81
2023-05-20T06:17:27.649Z,95637.41
2023-05-20T06:19:59.414Z,95627.53
2023-05-20T06:22:28.852Z,95630.41
2023-05-20T06:25:00.965Z,95633.33
2023-05-20T06:27:29.722Z,95632.89
2023-05-20T06:29:58.392Z,95635.68
2023-05-20T06:32:30.290Z,95628.00
2023-05-20T06:38:00.773Z,95621.53
2023-05-20T06:40:30.128Z,95615.16
2023-05-20T06:45:51.437Z,95605.38
2023-05-20T06:48:20.048Z,95545.13
2023-05-20T06:50:50.203Z,95601.66
2023-05-20T06:53:19.170Z,95611.64
2023-05-20T06:55:59.952Z,95607.17
2023-05-20T06:58:29.521Z,95616.53
2023-05-20T07:00:59.745Z,95609.98
2023-05-20T07:03:28.469Z,95529.69
2023-05-20T07:06:10.649Z,95613.16
2023-05-20T07:08:41.305Z,95610.23
2023-05-20T07:11:09.892Z,95609.77
2023-05-20T07:13:39.488Z,95601.34
2023-05-20T07:16:08.352Z,95604.06
2023-05-20T07:18:37.091Z,95596.30
2023-05-20T07:21:05.724Z,95596.66
2023-05-20T07:23:34.562Z,95601.22
2023-05-20T07:26:03.336Z,95597.76
2023-05-20T07:28:37.328Z,95595.08
2023-05-20T07:31:05.990Z,95591.54
2023-05-20T07:33:36.784Z,95581.79
2023-05-20T07:36:09.103Z,95585.67
2023-05-20T07:38:37.046Z,95593.70
2023-05-20T07:41:06.720Z,95592.17
2023-05-20T07:43:36.621Z,95593.23
2023-05-20T07:46:05.964Z,95592.48
2023-05-20T07:48:34.835Z,95596.33
2023-05-20T07:51:05.341Z,95591.42
2023-05-20T07:53:35.772Z,95592.81
2023-05-20T07:56:04.858Z,95589.47
2023-05-20T07:58:33.796Z,95586.81
2023-05-20T08:01:05.072Z,95591.69
2023-05-20T08:03:35.245Z,95585.18
2023-05-20T08:06:06.203Z,95593.53
2023-05-20T08:08:36.349Z,95584.80
2023-05-20T08:11:05.266Z,95591.95
2023-05-20T08:13:34.326Z,95583.62
2023-05-20T08:16:06.262Z,95586.41
2023-05-20T08:18:38.170Z,95588.58
2023-05-20T08:21:11.119Z,95586.20
2023-05-20T08:23:40.647Z,95586.86
2023-05-20T08:26:09.503Z,95581.31
2023-05-20T08:28:38.419Z,95578.45
2023-05-20T08:31:08.993Z,95576.05
2023-05-20T08:33:37.744Z,95577.77
2023-05-20T08:36:06.719Z,95574.73
2023-05-20T08:38:36.605Z,95582.63
2023-05-20T08:41:07.503Z,95575.37
2023-05-20T08:43:41.261Z,95575.70
2023-05-20T08:46:11.717Z,95575.70
2023-05-20T08:48:41.029Z,95577.38
2023-05-20T08:51:11.565Z,95572.92
2023-05-20T08:53:41.690Z,95577.59
2023-05-20T08:56:12.677Z,95578.80
2023-05-20T08:58:43.179Z,95580.45
2023-05-20T09:01:12.019Z,95580.41
2023-05-20T09:03:40.668Z,95569.02
2023-05-20T09:06:11.148Z,95567.50
2023-05-20T09:08:42.317Z,95563.39
2023-05-20T09:11:17.824Z,95559.52
2023-05-20T09:13:46.539Z,95559.80
2023-05-20T09:16:17.442Z,95559.11
2023-05-20T09:21:45.441Z,95548.50
2023-05-20T09:24:16.900Z,95545.36
2023-05-20T09:29:59.093Z,95540.98
2023-05-20T09:32:34.334Z,95538.01
2023-05-20T09:35:18.512Z,95543.70
2023-05-20T09:38:02.794Z,95535.09
2023-05-20T09:40:36.905Z,95536.33
2023-05-20T09:43:17.225Z,95528.41
2023-05-20T09:45:54.337Z,95531.91
2023-05-20T09:48:55.735Z,95526.16
2023-05-20T09:51:35.450Z,95526.75
2023-05-20T09:54:08.410Z,95517.84
2023-05-20T10:05:38.200Z,95511.04
2023-05-20T10:08:27.153Z,95506.59
2023-05-20T10:11:31.399Z,95506.80
2023-05-20T10:14:36.571Z,95488.45
2023-05-20T10:17:43.459Z,95493.99
2023-05-20T10:20:19.376Z,95494.85
2023-05-20T10:23:01.704Z,95454.80
2023-05-20T10:28:48.010Z,95477.65
2023-05-20T10:31:44.786Z,95470.09
2023-05-20T10:34:20.001Z,95478.11
2023-05-20T10:36:57.830Z,95469.47
2023-05-20T10:39:34.769Z,95468.66
2023-05-20T10:42:10.537Z,95472.68
2023-05-20T10:44:53.928Z,95467.37
2023-05-20T10:47:25.892Z,95463.38
2023-05-20T10:49:58.821Z,95449.99
2023-05-20T10:52:27.857Z,95442.37
2023-05-20T10:55:09.881Z,95435.42
2023-05-20T10:57:42.906Z,95446.11
2023-05-20T11:00:13.340Z,95427.95
2023-05-20T11:02:43.017Z,95364.52
2023-05-20T11:05:14.786Z,95436.97
2023-05-20T11:07:43.754Z,95426.14
2023-05-20T11:10:13.884Z,95424.69
2023-05-20T11:12:42.795Z,95427.63
2023-05-20T11:15:13.522Z,95428.25
2023-05-20T11:17:56.224Z,95431.27
2023-05-20T11:20:31.762Z,95437.38
2023-05-20T11:23:00.441Z,95429.53
2023-05-20T11:25:33.961Z,95434.48
2023-05-20T11:28:02.831Z,95424.38
2023-05-20T11:30:33.432Z,95413.84
2023-05-20T11:33:05.637Z,95408.19
2023-05-20T11:35:34.399Z,95400.97
2023-05-20T11:38:05.072Z,95397.13
2023-05-20T11:40:46.258Z,95395.89
2023-05-20T11:43:05.971Z,95397.78
2023-05-20T11:45:46.348Z,95396.58
2023-05-20T11:48:16.567Z,95388.08
2023-05-20T11:50:48.223Z,95401.03
2023-05-20T11:53:19.152Z,95400.38
2023-05-20T11:55:52.222Z,95386.36
2023-05-20T11:58:29.514Z,95397.55
2023-05-20T12:01:05.787Z,95388.19
2023-05-20T12:03:29.363Z,95386.64
2023-05-20T12:05:58.160Z,95378.04
2023-05-20T12:08:26.892Z,95369.17
2023-05-20T12:10:56.289Z,95378.33
2023-05-20T12:13:25.061Z,95377.17
2023-05-20T12:15:54.126Z,95367.60
2023-05-20T12:18:24.168Z,95369.17
2023-05-20T12:20:52.854Z,95372.19
2023-05-20T12:23:21.748Z,95380.92
2023-05-20T12:25:50.480Z,95379.17
2023-05-20T12:28:19.624Z,95378.91
2023-05-20T12:30:48.336Z,95380.50
2023-05-20T12:33:16.981Z,95386.56
2023-05-20T12:35:46.842Z,95390.47
2023-05-20T12:38:15.588Z,95404.67
2023-05-20T12:40:44.406Z,95408.58
2023-05-20T12:43:13.146Z,95405.47
2023-05-20T12:45:41.986Z,95421.77
2023-05-20T12:48:12.284Z,95414.37
2023-05-20T12:50:41.292Z,95420.73
2023-05-20T12:53:10.191Z,95423.20
2023-05-20T12:55:39.601Z,95425.22
2023-05-20T12:58:11.329Z,95422.38
2023-05-20T13:00:40.093Z,95413.31
2023-05-20T13:03:09.230Z,95406.12
2023-05-20T13:05:37.965Z,95406.97
2023-05-20T13:08:08.560Z,95399.84
2023-05-20T13:10:38.132Z,95397.63
2023-05-20T13:13:07.137Z,95391.31
2023-05-20T13:15:36.962Z,95385.15
2023-05-20T13:18:09.552Z,95387.48
2023-05-20T13:20:38.958Z,95372.67
2023-05-20T13:23:08.316Z,95369.16
2023-05-20T13:25:37.143Z,95377.43
2023-05-20T13:28:07.682Z,95369.89
2023-05-20T13:30:36.841Z,95374.05
2023-05-20T13:33:05.863Z,95374.08
2023-05-20T13:35:34.943Z,95369.43
2023-05-20T13:38:03.675Z,95363.52
2023-05-20T13:40:32.476Z,95368.00
2023-05-20T13:43:01.398Z,95362.13
2023-05-20T13:45:30.094Z,95365.38
2023-05-20T13:48:14.741Z,95365.14
2023-05-20T13:50:43.590Z,95367.50
2023-05-20T13:53:14.014Z,95366.04
2023-05-20T13:55:44.214Z,95361.52
2023-05-20T13:58:12.864Z,95366.37
2023-05-20T14:00:41.657Z,95357.45
2023-05-20T14:03:10.614Z,95353.14
2023-05-20T14:05:40.857Z,95343.31
2023-05-20T14:08:09.668Z,95345.80
2023-05-20T14:10:38.420Z,95338.63
2023-05-20T14:13:11.965Z,95333.81
2023-05-20T14:15:43.563Z,95339.73
2023-05-20T14:18:12.385Z,95323.77
2023-05-20T14:20:42.733Z,95323.63
2023-05-20T14:23:11.516Z,95321.49
2023-05-20T14:25:45.410Z,95324.38
2023-05-20T14:28:14.173Z,95330.71
2023-05-20T14:30:42.904Z,95331.42
2023-05-20T14:33:11.725Z,95335.27
2023-05-20T14:35:42.990Z,95332.09
2023-05-20T14:38:11.815Z,95338.10
2023-05-20T14:40:40.471Z,95335.34
2023-05-20T14:43:09.166Z,95330.14
2023-05-20T14:45:37.833Z,95328.42
2023-05-20T14:48:07.095Z,95326.91
2023-05-20T14:50:36.236Z,95329.18
2023-05-20T14:53:05.640Z,95321.44
2023-05-20T14:55:34.377Z,95326.70
2023-05-20T14:58:03.189Z,95329.63
2023-05-20T15:00:33.073Z,95324.88
2023-05-20T15:03:02.359Z,95319.13
2023-05-20T15:05:34.048Z,95313.64
2023-05-20T15:08:02.782Z,95315.11
2023-05-20T15:10:31.551Z,95324.91
2023-05-20T15:13:00.236Z,95324.01
2023-05-20T15:15:29.222Z,95322.38
2023-05-20T15:17:57.957Z,95322.77
2023-05-20T15:20:26.964Z,95323.28
2023-05-20T15:22:56.166Z,95319.21
2023-05-20T15:25:25.156Z,95318.75
2023-05-20T15:27:54.196Z,95316.20
2023-05-20T15:30:23.084Z,95313.53
2023-05-20T15:32:54.941Z,95312.22
2023-05-20T15:35:25.411Z,95315.88
2023-05-20T15:37:54.841Z,95316.77
2023-05-20T15:40:27.072Z,95308.75
2023-05-20T15:42:57.427Z,95309.98
2023-05-20T15:45:30.131Z,95315.84
2023-05-20T15:48:09.758Z,95310.30
2023-05-20T15:50:42.252Z,95308.96
2023-05-20T15:53:14.597Z,95304.82
2023-05-20T15:55:45.231Z,95308.18
2023-05-20T15:58:17.024Z,95307.48
2023-05-20T16:00:46.111Z,95302.68
2023-05-20T16:03:24.750Z,95301.39
2023-05-20T16:06:03.487Z,95301.76
2023-05-20T16:08:48.760Z,95297.67
2023-05-20T16:11:22.324Z,95301.31
2023-05-20T16:14:03.432Z,95305.28
2023-05-20T16:16:43.023Z,95303.30
2023-05-20T16:19:15.158Z,95298.15
2023-05-20T16:21:48.999Z,95298.16
2023-05-20T16:24:48.635Z,95300.71
2023-05-20T16:27:43.592Z,95301.38
2023-05-20T16:34:59.857Z,95297.11
2023-05-20T16:39:43.492Z,95298.39
2023-05-20T16:42:38.584Z,95301.27
2023-05-20T16:48:10.181Z,95300.48
2023-05-20T16:51:00.761Z,95305.06
2023-05-20T16:54:05.150Z,95305.92
2023-05-20T16:56:16.880Z,95303.59
2023-05-20T16:58:53.194Z,95302.49
2023-05-20T17:01:26.543Z,95305.10
2023-05-20T17:04:01.425Z,95309.69
2023-05-20T17:06:33.800Z,95239.17
2023-05-20T17:09:04.896Z,95321.14
2023-05-20T17:11:42.840Z,95327.14
2023-05-20T17:14:29.527Z,95309.00
2023-05-20T17:17:05.838Z,95324.29
2023-05-20T17:19:44.421Z,95327.31
2023-05-20T17:34:50.096Z,95336.67
2023-05-20T17:37:20.520Z,95333.27
2023-05-20T17:40:02.006Z,95335.08
2023-05-20T17:42:31.032Z,95278.05
2023-05-20T17:45:10.772Z,95341.16
2023-05-20T17:47:44.372Z,95347.48
2023-05-20T17:50:16.765Z,95357.52
2023-05-20T17:52:45.674Z,95347.19
2023-05-20T17:55:22.715Z,95350.19
2023-05-20T17:58:02.092Z,95356.93
2023-05-20T18:00:34.384Z,95352.84
2023-05-20T18:03:16.316Z,95353.03
2023-05-20T18:05:52.760Z,95356.20
2023-05-20T18:08:29.374Z,95359.13
2023-05-20T18:11:04.640Z,95354.16
2023-05-20T18:13:41.424Z,95363.35
2023-05-20T18:16:24.790Z,95361.84
2023-05-20T18:18:54.583Z,95358.25
2023-05-20T18:21:24.503Z,95355.31
2023-05-20T18:23:54.884Z,95357.38
2023-05-20T18:26:23.806Z,95359.77
2023-05-20T18:29:09.180Z,95357.13
2023-05-20T18:31:28.826Z,95364.58
2023-05-20T18:33:57.586Z,95363.23
2023-05-20T18:36:27.650Z,95354.86
2023-05-20T18:38:56.593Z,95356.27
2023-05-20T18:41:32.429Z,95345.75
2023-05-20T18:44:01.563Z,95352.28
2023-05-20T18:46:31.248Z,95358.09
2023-05-20T18:49:04.133Z,95362.00
2023-05-20T18:51:39.997Z,95371.48
2023-05-20T18:54:10.182Z,95372.31
2023-05-20T18:56:44.487Z,95377.88
2023-05-20T18:59:25.070Z,95386.27
2023-05-20T19:01:53.520Z,95384.16
2023-05-20T19:04:26.758Z,95386.27
2023-05-20T19:06:55.465Z,95385.82
2023-05-20T19:09:24.262Z,95386.48
2023-05-20T19:12:01.763Z,95386.58
2023-05-20T19:14:50.022Z,95393.42
2023-05-20T19:17:21.463Z,95397.23
2023-05-20T19:19:53.148Z,95399.83
2023-05-20T19:22:40.062Z,95409.54
2023-05-20T19:25:12.415Z,95406.01
2023-05-20T19:27:43.144Z,95412.85
2023-05-20T19:30:20.287Z,95409.91
2023-05-20T19:32:49.149Z,95406.48
2023-05-20T19:35:25.797Z,95404.87
2023-05-20T19:37:56.876Z,95405.37
2023-05-20T19:40:26.000Z,95400.11
2023-05-20T19:42:57.529Z,95400.11
2023-05-20T19:45:31.038Z,95406.02
2023-05-20T19:48:04.979Z,95401.45
2023-05-20T19:50:33.925Z,95406.75
2023-05-20T19:53:04.343Z,95402.83
2023-05-20T19:55:36.280Z,95407.27
2023-05-20T19:58:05.404Z,95409.20
2023-05-20T20:00:38.989Z,95409.46
2023-05-20T20:03:51.614Z,95404.25
2023-05-20T20:06:21.304Z,95409.03
2023-05-20T20:08:50.016Z,95403.13
2023-05-20T20:11:19.882Z,95400.27
2023-05-20T20:13:50.201Z,95404.27
2023-05-20T20:16:23.119Z,95404.94
2023-05-20T20:18:55.295Z,95401.55
2023-05-20T20:21:25.793Z,95398.09
2023-05-20T20:23:56.944Z,95378.84
2023-05-20T20:26:30.228Z,95369.60
2023-05-20T20:28:59.097Z,95375.34
2023-05-20T20:31:29.288Z,95362.64
2023-05-20T20:33:59.591Z,95359.61
2023-05-20T20:36:32.246Z,95357.75
2023-05-20T20:39:02.793Z,95361.45
2023-05-20T20:41:32.309Z,95354.72
2023-05-20T20:44:05.728Z,95353.41
2023-05-20T20:46:34.430Z,95353.19
2023-05-20T20:49:05.853Z,95348.12
2023-05-20T20:51:34.539Z,95350.99
2023-05-20T20:54:03.519Z,95348.64
2023-05-20T20:56:33.982Z,95350.30
2023-05-20T20:59:03.441Z,95343.45
2023-05-20T21:01:34.636Z,95341.58
2023-05-20T21:04:07.018Z,95337.76
2023-05-20T21:06:37.444Z,95339.38
2023-05-20T21:09:11.263Z,95334.85
2023-05-20T21:11:42.028Z,95350.25
2023-05-20T21:14:14.679Z,95351.27
2023-05-20T21:16:46.858Z,95349.05
2023-05-20T21:19:22.978Z,95343.72
2023-05-20T21:21:57.689Z,95345.61
2023-05-20T21:24:41.297Z,95346.95
2023-05-20T21:27:16.424Z,95346.37
2023-05-20T21:29:56.462Z,95345.39
2023-05-20T21:32:25.739Z,95341.64
2023-05-20T21:35:00.919Z,95339.17
2023-05-20T21:40:53.508Z,95336.14
2023-05-20T21:43:24.123Z,95334.42
2023-05-20T21:46:03.522Z,95328.48
2023-05-20T21:48:54.067Z,95328.90
2023-05-20T21:51:32.375Z,95325.24
2023-05-20T21:54:04.312Z,95330.05
2023-05-20T21:57:18.920Z,95328.34
2023-05-20T21:59:56.340Z,95327.98
2023-05-20T22:02:43.388Z,95325.52
2023-05-20T22:08:30.231Z,95314.20
2023-05-20T22:11:05.495Z,95314.97
2023-05-20T22:13:40.601Z,95314.03
2023-05-20T22:16:18.827Z,95313.66
2023-05-20T22:19:32.359Z,95319.21
2023-05-20T22:21:49.691Z,95306.79
2023-05-20T22:24:32.886Z,95309.08
2023-05-20T22:27:05.726Z,95301.44
2023-05-20T22:29:36.286Z,95295.69
2023-05-20T22:32:05.828Z,95287.42
2023-05-20T22:34:35.003Z,95293.35
2023-05-20T22:37:04.732Z,95289.91
2023-05-20T22:39:35.858Z,95295.45
2023-05-20T22:42:09.115Z,95294.30
2023-05-20T22:44:38.244Z,95286.09
2023-05-20T22:49:58.047Z,95283.41
2023-05-20T22:52:29.008Z,95282.86
2023-05-20T22:55:00.705Z,95285.53
2023-05-20T22:57:30.349Z,95283.99
2023-05-20T23:00:00.536Z,95281.69
2023-05-20T23:02:30.952Z,95288.38
2023-05-20T23:05:08.458Z,95284.34
2023-05-20T23:07:42.673Z,95280.56
2023-05-20T23:10:12.372Z,95278.84
2023-05-20T23:12:48.430Z,95275.01
2023-05-20T23:15:25.362Z,95270.59
2023-05-20T23:18:05.096Z,95261.58
2023-05-20T23:20:37.421Z,95259.45
2023-05-20T23:23:11.162Z,95255.03
2023-05-20T23:25:42.406Z,95251.25
2023-05-20T23:28:15.885Z,95247.80
2023-05-20T23:30:50.864Z,95244.16
2023-05-20T23:33:26.052Z,95236.28
2023-05-20T23:35:54.840Z,95232.85
2023-05-20T23:38:23.731Z,95226.15
2023-05-20T23:40:52.532Z,95225.80
2023-05-20T23:43:22.362Z,95229.03
2023-05-20T23:45:51.303Z,95221.76
2023-05-20T23:48:20.024Z,95217.34
2023-05-20T23:50:49.127Z,95218.11
2023-05-20T23:53:17.773Z,95219.81
2023-05-20T23:55:48.236Z,95213.27
2023-05-20T23:58:17.013Z,95213.48
